Austin, TX (78735)

1:55 AM CDT on September 02, 2014 (GMT -0500)
AMD Lone Star Campus | Change Station
CLOSE
Current Station
Personal Weather Station
Location: Austin, TX
Elevation: 1004 ft
Nearby Weather Stations

Elev 1004 ft 30.25 °N, 97.86 °W | Updated 2 minutes ago

Clear
Clear
78.2 °F
Feels Like 81 °F
N
2.0
Wind Variable Wind from ESE
Gusts 7.0 mph

Today
High -- | Low -- °F
--% Chance of Precip.
Yesterday
High -- | Low -- °F
Precip. -- in
7:08 AM 7:52 PM
Waxing Crescent, 48% visible
Pressure 29.89 in
Visibility 10.0 miles
Clouds Clear
Heat Index 81 °F
Dew Point 74 °F
Humidity 86%
Rainfall 0.00 in
Snow Depth Not available.
UV 0 out of 12
Pollen 8.50 out of 12
Ozone Good
PM2.5 Good
Flu Activity Not available.
METAR KATT 020651Z AUTO 16005KT 10SM CLR 27/23 A2994 RMK AO2 SLP121 T02670233

More Conditions Fewer Conditions

Pressure 29.89 in
Visibility 10.0 miles
Clouds Clear
Heat Index 81 °F
Dew Point 74 °F
Humidity 86%
Rainfall 0.00 in
Snow Depth Not available.
UV 0 out of 12
Pollen 8.50 out of 12
Ozone Good
PM2.5 Good
Flu Activity Not available.
METAR KATT 020651Z AUTO 16005KT 10SM CLR 27/23 A2994 RMK AO2 SLP121 T02670233

More Conditions Fewer Conditions

10-Day Weather Forecast

Almanac

Astronomy

Sep. 02, 2014 Rise Set
Actual Time 7:08 AM CDT 7:52 PM CDT
Civil Twilight 6:44 AM CDT 8:17 PM CDT
Nautical Twilight 6:15 AM CDT 8:45 PM CDT
Astronomical Twilight 5:46 AM CDT 9:15 PM CDT
Moon 2:24 PM CDT 12:25 AM CDT
Length of Visible Light 13h 32m
Length of Day
12h 44m
Tomorrow will be 1m 46s shorter.
Waxing Crescent, 48% of the Moon is Illuminated
Today
Waxing Crescent
Sep 2
First Quarter
Sep 8
Full
Sep 15
Last Quarter
Sep 24
New

Today's Extremes

State Highs State Lows

Community

WunderPhotos

Upload Photos

1,749,589 photos uploaded!

WunderBlogs® & News

Nearby

Air Quality

  Air Quality AQ Index Pollutant
Yesterday Good
PM2.5
Yesterday Good
OZONE
Current Good
PM2.5
Current Good
OZONE
Tuesday Good
OZONE
Tuesday Good
PM10
Wednesday Good
OZONE
Wednesday Good
PM10
Thursday Good
OZONE
Thursday Good
PM10

Snow Depth

Station Depth Elevation
No new snow has been reported.

Earthquake Activity

City Distance Mag. Time & Date
No recent earthquake activity has been reported nearby.
Minimum magnitude displayed is 2.5.

Coastal Water Temperatures

Place Temperature
No Stations Reporting

Nearby Weather Stations